HOSS14 EGUL-EGUL

Flight info

Callsign HOSS14
Flight time 0h 10m
Altitude 1500
Route OPR
Aircraft F15/L-VGD/C

Departure

Time 2026-04-28 07:21
Airport RAF Lakenheath (EGUL)

Arrival

Time 2026-04-28 07:31
Airport RAF Lakenheath (EGUL)
Time Latitude Longitude Altitude Speed Heading
2026-04-28 07:11 52.40033 0.55849 37 ft 0 kts 353°
2026-04-28 07:18 52.40052 0.55845 38 ft 6 kts 351°
2026-04-28 07:18 52.40055 0.55730 38 ft 20 kts 260°
2026-04-28 07:19 52.40026 0.55423 35 ft 33 kts 261°
2026-04-28 07:19 52.40019 0.55096 34 ft 23 kts 296°
2026-04-28 07:19 52.40089 0.54891 34 ft 19 kts 298°
2026-04-28 07:19 52.40144 0.54724 34 ft 15 kts 299°
2026-04-28 07:20 52.40190 0.54584 33 ft 14 kts 296°
2026-04-28 07:20 52.40257 0.54473 30 ft 10 kts 34°
2026-04-28 07:20 52.40466 0.54972 33 ft 155 kts 55°
2026-04-28 07:20 52.41505 0.57329 584 ft 292 kts 55°
2026-04-28 07:21 52.41689 0.60062 1112 ft 254 kts 132°
2026-04-28 07:21 52.40069 0.60233 855 ft 257 kts 221°
2026-04-28 07:21 52.39090 0.58291 995 ft 205 kts 231°
2026-04-28 07:22 52.37242 0.54456 856 ft 214 kts 249°
2026-04-28 07:22 52.37402 0.52236 745 ft 202 kts 317°
2026-04-28 07:22 52.38612 0.51520 494 ft 190 kts 21°
2026-04-28 07:22 52.39583 0.52785 243 ft 178 kts 58°
2026-04-28 07:23 52.40218 0.54328 60 ft 156 kts 60°
2026-04-28 07:23 52.40807 0.55829 313 ft 195 kts 60°
2026-04-28 07:23 52.41370 0.57644 721 ft 172 kts 91°
2026-04-28 07:23 52.40557 0.59344 991 ft 236 kts 155°
2026-04-28 07:24 52.38756 0.59003 1032 ft 293 kts 218°
2026-04-28 07:24 52.37473 0.56572 859 ft 272 kts 231°
2026-04-28 07:24 52.36613 0.54125 899 ft 213 kts 264°
2026-04-28 07:24 52.36921 0.52014 608 ft 189 kts 316°
2026-04-28 07:25 52.38051 0.51330 625 ft 184 kts 11°
2026-04-28 07:25 52.39153 0.51979 497 ft 150 kts 41°
2026-04-28 07:25 52.39858 0.53486 201 ft 158 kts 58°
2026-04-28 07:25 52.40463 0.54956 34 ft 140 kts 56°
2026-04-28 07:26 52.41048 0.56333 211 ft 184 kts 55°
2026-04-28 07:26 52.41754 0.58207 1059 ft 190 kts 91°
2026-04-28 07:26 52.40952 0.59522 846 ft 203 kts 169°
2026-04-28 07:26 52.39461 0.58822 1143 ft 208 kts 216°
2026-04-28 07:27 52.38419 0.56884 961 ft 271 kts 232°
2026-04-28 07:27 52.37236 0.54432 1178 ft 266 kts 236°
2026-04-28 07:27 52.37046 0.51942 957 ft 204 kts 306°
2026-04-28 07:27 52.38161 0.50630 711 ft 176 kts 359°
2026-04-28 07:28 52.39138 0.51622 426 ft 184 kts 62°
2026-04-28 07:28 52.39793 0.53300 166 ft 170 kts 59°
2026-04-28 07:28 52.40422 0.54837 34 ft 142 kts 59°
2026-04-28 07:28 52.40990 0.56210 134 ft 182 kts 50°
2026-04-28 07:29 52.41232 0.58445 1988 ft 316 kts 156°
2026-04-28 07:29 52.39088 0.57862 1763 ft 322 kts 205°
2026-04-28 07:29 52.37595 0.55361 1215 ft 278 kts 233°
2026-04-28 07:29 52.36841 0.53040 1039 ft 227 kts 269°
2026-04-28 07:30 52.37324 0.50746 835 ft 201 kts 324°
2026-04-28 07:30 52.38530 0.50594 567 ft 195 kts 43°
2026-04-28 07:30 52.39271 0.52103 284 ft 158 kts 56°
2026-04-28 07:30 52.39920 0.53631 171 ft 162 kts 60°
2026-04-28 07:31 52.40498 0.55047 34 ft 130 kts 57°
2026-04-28 07:31 52.40909 0.56014 38 ft 78 kts 58°
2026-04-28 07:31 52.41153 0.56617 38 ft 52 kts 55°
2026-04-28 07:31 52.41328 0.57033 38 ft 37 kts 56°
2026-04-28 07:32 52.41454 0.57331 38 ft 28 kts 55°
2026-04-28 07:32 52.41554 0.57571 38 ft 23 kts 55°
2026-04-28 07:32 52.41613 0.57754 38 ft 11 kts 121°
2026-04-28 07:32 52.41539 0.57815 37 ft 8 kts 241°
2026-04-28 07:33 52.41524 0.57771 37 ft 0 kts 241°
2026-04-28 07:33 52.41519 0.57755 37 ft 8 kts 234°
2026-04-28 07:34 52.41444 0.57703 38 ft 9 kts 188°
2026-04-28 07:34 52.41387 0.57709 38 ft 10 kts 127°
2026-04-28 07:34 52.41323 0.57742 39 ft 15 kts 195°
2026-04-28 07:34 52.41192 0.57682 45 ft 20 kts 195°
2026-04-28 07:35 52.41053 0.57621 49 ft 12 kts 194°
2026-04-28 07:35 52.40952 0.57581 50 ft 21 kts 193°
2026-04-28 07:35 52.40808 0.57514 48 ft 14 kts 197°
2026-04-28 07:35 52.40670 0.57453 44 ft 27 kts 195°
2026-04-28 07:36 52.40467 0.57366 49 ft 30 kts 196°
2026-04-28 07:36 52.40318 0.57284 49 ft 19 kts 213°
2026-04-28 07:36 52.40197 0.57128 46 ft 23 kts 240°
2026-04-28 07:36 52.40163 0.56849 44 ft 28 kts 261°
2026-04-28 07:37 52.40130 0.56498 42 ft 34 kts 261°
2026-04-28 07:37 52.40088 0.56093 41 ft 37 kts 261°
2026-04-28 07:37 52.40049 0.55883 38 ft 11 kts 167°
2026-04-28 07:37 52.40033 0.55849 37 ft 2 kts 349°
2026-04-28 07:38 52.40036 0.55849 37 ft 0 kts 349°